createdAt,value
2018-08-09T00:01:43.084Z,6.27
2018-08-09T00:04:12.703Z,3.50
2018-08-09T00:06:42.730Z,6.60
2018-08-09T00:09:13.133Z,7.03
2018-08-09T00:11:42.873Z,4.47
2018-08-09T00:14:13.022Z,3.87
2018-08-09T00:16:42.887Z,6.33
2018-08-09T00:19:12.510Z,2.47
2018-08-09T00:21:42.942Z,4.80
2018-08-09T00:24:12.658Z,6.17
2018-08-09T00:26:42.890Z,2.90
2018-08-09T00:29:12.472Z,3.17
2018-08-09T00:31:42.919Z,4.03
2018-08-09T00:34:12.623Z,4.53
2018-08-09T00:36:43.024Z,2.65
2018-08-09T00:39:13.751Z,2.70
2018-08-09T00:41:44.278Z,6.00
2018-08-09T00:44:13.736Z,4.20
2018-08-09T00:46:43.605Z,4.63
2018-08-09T00:49:13.379Z,5.30
2018-08-09T00:51:43.685Z,3.50
2018-08-09T00:54:13.153Z,5.37
2018-08-09T00:56:43.024Z,5.20
2018-08-09T00:59:12.796Z,5.00
2018-08-09T01:01:43.125Z,6.70
2018-08-09T01:04:12.822Z,6.73
2018-08-09T01:06:42.900Z,4.08
2018-08-09T01:09:15.324Z,4.87
2018-08-09T01:11:45.554Z,3.73
2018-08-09T01:14:15.194Z,7.57
2018-08-09T01:16:44.881Z,3.87
2018-08-09T01:19:14.491Z,5.57
2018-08-09T01:21:44.291Z,4.77
2018-08-09T01:24:13.851Z,4.23
2018-08-09T01:26:43.552Z,5.40
2018-08-09T01:29:13.082Z,3.27
2018-08-09T01:31:43.017Z,7.67
2018-08-09T01:34:12.595Z,7.87
2018-08-09T01:36:43.618Z,6.35
2018-08-09T01:39:14.015Z,4.77
2018-08-09T01:43:01.571Z,10.40
2018-08-09T01:45:31.070Z,10.50
2018-08-09T01:48:01.014Z,7.08
2018-08-09T01:50:31.044Z,8.07
2018-08-09T01:53:00.804Z,6.57
2018-08-09T01:55:30.653Z,4.47
2018-08-09T01:58:00.864Z,6.55
2018-08-09T02:00:30.300Z,2.93
2018-08-09T02:03:00.041Z,6.43
2018-08-09T02:05:29.812Z,6.57
2018-08-09T02:07:59.542Z,5.55
2018-08-09T02:10:29.354Z,3.67
2018-08-09T02:12:58.931Z,5.05
2018-08-09T02:15:28.410Z,4.07
2018-08-09T02:17:57.915Z,4.43
2018-08-09T02:20:27.417Z,4.60
2018-08-09T02:22:57.216Z,7.65
2018-08-09T02:25:27.287Z,8.58
2018-08-09T02:28:00.652Z,3.30
2018-08-09T02:30:30.397Z,7.27
2018-08-09T02:33:00.159Z,9.35
2018-08-09T02:35:29.809Z,6.43
2018-08-09T02:37:59.631Z,5.78
2018-08-09T02:40:29.289Z,5.27
2018-08-09T02:42:59.129Z,5.95
2018-08-09T02:45:28.802Z,8.80
2018-08-09T02:47:58.779Z,5.65
2018-08-09T02:50:28.296Z,3.37
2018-08-09T02:52:58.076Z,4.27
2018-08-09T02:55:28.259Z,4.33
2018-08-09T02:57:58.151Z,3.07
2018-08-09T03:00:27.689Z,6.97
2018-08-09T03:02:57.474Z,3.70
2018-08-09T03:05:27.169Z,5.23
2018-08-09T03:07:57.294Z,3.67
2018-08-09T03:10:27.022Z,4.17
2018-08-09T03:12:56.506Z,3.30
2018-08-09T03:15:26.158Z,5.57
2018-08-09T03:17:55.964Z,5.00
2018-08-09T03:20:25.453Z,4.67
2018-08-09T03:22:55.146Z,5.67
2018-08-09T03:25:24.921Z,7.07
2018-08-09T03:27:54.561Z,7.40
2018-08-09T03:30:24.672Z,5.73
2018-08-09T03:32:54.175Z,5.03
2018-08-09T03:35:24.069Z,8.80
2018-08-09T03:37:53.835Z,5.70
2018-08-09T03:40:23.479Z,7.53
2018-08-09T03:42:53.313Z,4.33
2018-08-09T03:45:22.758Z,6.10
2018-08-09T03:47:52.493Z,7.33
2018-08-09T03:50:22.211Z,8.73
2018-08-09T03:52:52.059Z,7.10
2018-08-09T03:55:21.833Z,7.90
2018-08-09T03:57:51.518Z,4.73
2018-08-09T04:00:21.296Z,6.20
2018-08-09T04:02:51.202Z,7.35
2018-08-09T04:05:21.210Z,6.13
2018-08-09T04:07:51.010Z,3.98
2018-08-09T04:10:20.744Z,9.93
2018-08-09T04:12:50.622Z,6.43
2018-08-09T04:15:20.812Z,4.93
2018-08-09T04:17:50.943Z,6.10
2018-08-09T04:20:20.664Z,7.20
2018-08-09T04:22:50.492Z,7.23
2018-08-09T04:25:19.946Z,4.17
2018-08-09T04:27:49.832Z,7.45
2018-08-09T04:30:19.461Z,7.13
2018-08-09T04:32:49.668Z,7.00
2018-08-09T04:35:19.398Z,5.50
2018-08-09T04:37:50.062Z,11.22
2018-08-09T04:40:19.695Z,8.03
2018-08-09T04:42:49.671Z,6.67
2018-08-09T04:45:19.544Z,8.87
2018-08-09T04:47:49.285Z,9.33
2018-08-09T04:50:18.859Z,16.70
2018-08-09T04:52:48.988Z,15.98
2018-08-09T04:55:18.743Z,14.13
2018-08-09T04:57:48.548Z,13.13
2018-08-09T05:00:18.157Z,17.83
2018-08-09T05:02:47.974Z,22.47
2018-08-09T05:05:17.795Z,21.23
2018-08-09T05:07:47.520Z,13.73
2018-08-09T05:10:17.316Z,17.37
2018-08-09T05:12:47.733Z,8.23
2018-08-09T05:15:17.802Z,8.00
2018-08-09T05:17:47.726Z,4.97
2018-08-09T05:20:17.609Z,7.50
2018-08-09T05:22:47.336Z,8.87
2018-08-09T05:25:17.125Z,9.23
2018-08-09T05:27:46.982Z,8.90
2018-08-09T05:30:16.720Z,11.67
2018-08-09T05:32:46.749Z,7.13
2018-08-09T05:35:16.531Z,7.63
2018-08-09T05:37:46.002Z,6.53
2018-08-09T05:40:15.779Z,8.13
2018-08-09T05:42:45.647Z,9.77
2018-08-09T05:45:15.343Z,8.43
2018-08-09T05:47:44.965Z,7.03
2018-08-09T05:50:14.998Z,6.67
2018-08-09T05:52:44.887Z,11.00
2018-08-09T05:55:14.856Z,5.40
2018-08-09T05:57:44.607Z,7.33
2018-08-09T06:00:14.538Z,8.63
2018-08-09T06:02:45.123Z,6.80
2018-08-09T06:05:15.091Z,10.13
2018-08-09T06:07:44.825Z,7.00
2018-08-09T06:10:14.787Z,13.27
2018-08-09T06:12:44.442Z,8.87
2018-08-09T06:15:14.410Z,9.27
2018-08-09T06:17:44.239Z,9.33
2018-08-09T06:20:14.133Z,9.23
2018-08-09T06:22:44.089Z,9.90
2018-08-09T06:25:14.065Z,11.20
2018-08-09T06:27:44.630Z,8.23
2018-08-09T06:30:14.415Z,8.67
2018-08-09T06:32:44.295Z,5.40
2018-08-09T06:35:13.833Z,8.30
2018-08-09T06:37:43.861Z,8.47
2018-08-09T06:40:15.020Z,7.37
2018-08-09T06:42:45.384Z,9.23
2018-08-09T06:45:15.745Z,5.77
2018-08-09T06:47:45.641Z,7.97
2018-08-09T06:50:15.627Z,6.07
2018-08-09T06:52:45.634Z,7.78
2018-08-09T06:55:16.019Z,9.03
2018-08-09T06:57:46.263Z,8.80
2018-08-09T07:00:16.446Z,5.93
2018-08-09T07:02:46.054Z,13.60
2018-08-09T07:05:15.980Z,9.67
2018-08-09T07:07:45.986Z,9.77
2018-08-09T07:10:16.024Z,6.67
2018-08-09T07:12:45.830Z,9.73
2018-08-09T07:15:15.875Z,9.13
2018-08-09T07:17:45.594Z,12.50
2018-08-09T07:20:15.338Z,10.23
2018-08-09T07:22:45.390Z,7.47
2018-08-09T07:25:15.404Z,5.37
2018-08-09T07:27:45.667Z,8.93
2018-08-09T07:30:15.514Z,7.10
2018-08-09T07:32:45.657Z,7.20
2018-08-09T07:35:15.341Z,7.50
2018-08-09T07:37:45.164Z,4.57
2018-08-09T07:40:15.238Z,7.47
2018-08-09T07:42:45.304Z,6.37
2018-08-09T07:45:15.668Z,8.10
2018-08-09T07:47:45.769Z,9.87
2018-08-09T07:50:15.821Z,9.13
2018-08-09T07:52:45.872Z,12.00
2018-08-09T07:55:15.420Z,7.93
2018-08-09T07:57:45.272Z,8.80
2018-08-09T08:00:15.198Z,8.70
2018-08-09T08:02:45.034Z,14.80
2018-08-09T08:05:14.875Z,10.33
2018-08-09T08:07:45.264Z,9.90
2018-08-09T08:10:15.375Z,8.43
2018-08-09T08:12:48.455Z,11.10
2018-08-09T08:15:18.310Z,8.63
2018-08-09T08:17:48.512Z,10.15
2018-08-09T08:20:18.058Z,8.97
2018-08-09T08:22:48.419Z,9.37
2018-08-09T08:25:18.692Z,9.70
2018-08-09T08:27:48.999Z,11.65
2018-08-09T08:30:18.662Z,9.60
2018-08-09T08:32:48.417Z,10.23
2018-08-09T08:35:18.078Z,9.47
2018-08-09T08:37:48.322Z,13.93
2018-08-09T08:40:18.438Z,10.47
2018-08-09T08:42:48.469Z,14.33
2018-08-09T08:45:19.158Z,9.53
2018-08-09T08:47:49.091Z,8.46
2018-08-09T08:50:18.940Z,11.43
2018-08-09T08:52:49.152Z,9.70
2018-08-09T08:55:19.296Z,12.30
2018-08-09T08:57:49.430Z,12.40
2018-08-09T09:00:19.597Z,11.90
2018-08-09T09:02:49.186Z,12.60
2018-08-09T09:05:18.993Z,11.77
2018-08-09T09:07:48.797Z,14.75
2018-08-09T09:10:18.301Z,12.60
2018-08-09T09:12:47.876Z,12.13
2018-08-09T09:15:17.682Z,15.73
2018-08-09T09:17:47.847Z,12.87
2018-08-09T09:20:18.155Z,15.50
2018-08-09T09:22:48.268Z,12.43
2018-08-09T09:25:18.037Z,12.58
2018-08-09T09:27:48.155Z,9.30
2018-08-09T09:30:18.819Z,10.17
2018-08-09T09:32:48.410Z,8.90
2018-08-09T09:35:18.188Z,10.13
2018-08-09T09:37:48.012Z,10.30
2018-08-09T09:40:17.941Z,20.40
2018-08-09T09:42:47.700Z,14.87
2018-08-09T09:45:17.813Z,12.58
2018-08-09T09:47:47.588Z,12.07
2018-08-09T09:50:17.647Z,11.37
2018-08-09T09:52:47.551Z,14.43
2018-08-09T09:55:17.802Z,13.93
2018-08-09T09:57:47.895Z,10.73
2018-08-09T10:00:23.089Z,10.80
2018-08-09T10:02:52.822Z,12.98
2018-08-09T10:05:22.354Z,10.07
2018-08-09T10:07:52.357Z,11.05
2018-08-09T10:10:22.192Z,15.47
2018-08-09T10:12:52.510Z,14.00
2018-08-09T10:15:22.597Z,11.08
2018-08-09T10:17:52.882Z,9.33
2018-08-09T10:20:23.058Z,13.80
2018-08-09T10:22:52.798Z,9.13
2018-08-09T10:25:22.937Z,12.20
2018-08-09T10:27:52.571Z,9.45
2018-08-09T10:30:22.505Z,11.48
2018-08-09T10:32:52.267Z,10.70
2018-08-09T10:35:21.981Z,13.80
2018-08-09T10:37:51.899Z,10.82
2018-08-09T10:40:21.777Z,11.77
2018-08-09T10:42:51.569Z,11.83
2018-08-09T10:45:21.099Z,10.38
2018-08-09T10:47:51.521Z,10.78
2018-08-09T10:50:21.634Z,11.97
2018-08-09T10:52:51.561Z,9.87
2018-08-09T10:55:21.507Z,9.53
2018-08-09T10:57:50.998Z,12.10
2018-08-09T11:00:20.559Z,10.83
2018-08-09T11:02:50.558Z,9.54
2018-08-09T11:05:21.027Z,11.90
2018-08-09T11:07:51.096Z,12.00
2018-08-09T11:10:20.925Z,11.53
2018-08-09T11:12:50.481Z,13.73
2018-08-09T11:15:20.435Z,11.73
2018-08-09T11:17:50.664Z,14.73
2018-08-09T11:20:20.724Z,13.83
2018-08-09T11:22:50.695Z,15.83
2018-08-09T11:25:20.794Z,11.57
2018-08-09T11:27:50.393Z,13.67
2018-08-09T11:30:20.217Z,13.32
2018-08-09T11:32:50.252Z,14.75
2018-08-09T11:35:19.908Z,15.45
2018-08-09T11:37:49.662Z,13.53
2018-08-09T11:40:19.164Z,16.15
2018-08-09T11:42:48.748Z,15.08
2018-08-09T11:45:18.825Z,12.80
2018-08-09T11:47:48.814Z,15.70
2018-08-09T11:50:18.735Z,15.43
2018-08-09T11:52:48.380Z,14.87
2018-08-09T11:55:18.270Z,15.70
2018-08-09T11:57:48.027Z,12.40
2018-08-09T12:00:18.060Z,13.63
2018-08-09T12:02:48.238Z,14.83
2018-08-09T12:05:18.046Z,15.93
2018-08-09T12:07:48.109Z,14.67
2018-08-09T12:10:17.871Z,14.25
2018-08-09T12:12:47.592Z,17.45
2018-08-09T12:15:17.915Z,16.48
2018-08-09T12:17:47.906Z,14.83
2018-08-09T12:20:17.717Z,18.47
2018-08-09T12:22:48.504Z,17.65
2018-08-09T12:25:18.387Z,15.65
2018-08-09T12:27:48.123Z,13.50
2018-08-09T12:30:17.773Z,17.70
2018-08-09T12:32:47.773Z,14.20
2018-08-09T12:35:18.151Z,15.83
2018-08-09T12:37:47.975Z,15.68
2018-08-09T12:40:18.421Z,18.03
2018-08-09T12:42:48.231Z,16.67
2018-08-09T12:45:17.796Z,19.03
2018-08-09T12:47:47.804Z,18.17
2018-08-09T12:50:17.716Z,14.67
2018-08-09T12:53:02.669Z,16.48
2018-08-09T12:55:33.047Z,17.90
2018-08-09T12:58:03.245Z,17.70
2018-08-09T13:00:32.850Z,15.47
2018-08-09T13:03:03.203Z,16.20
2018-08-09T13:05:32.974Z,13.90
2018-08-09T13:08:03.437Z,15.30
2018-08-09T13:10:32.982Z,15.27
2018-08-09T13:13:02.999Z,15.20
2018-08-09T13:15:32.890Z,13.43
2018-08-09T13:18:03.270Z,10.20
2018-08-09T13:20:33.377Z,10.03
2018-08-09T13:23:03.273Z,9.60
2018-08-09T13:25:32.809Z,12.93
2018-08-09T13:28:02.857Z,6.40
2018-08-09T13:30:32.537Z,10.65
2018-08-09T13:33:02.467Z,8.60
2018-08-09T13:35:32.380Z,12.67
2018-08-09T13:38:02.605Z,12.07
2018-08-09T13:40:32.576Z,9.57
2018-08-09T13:43:02.210Z,9.80
2018-08-09T13:45:32.320Z,9.97
2018-08-09T13:48:02.483Z,11.30
2018-08-09T13:50:32.674Z,19.50
2018-08-09T13:53:02.518Z,13.00
2018-08-09T13:55:32.110Z,14.67
2018-08-09T13:58:02.026Z,7.80
2018-08-09T14:00:32.168Z,7.80
2018-08-09T14:03:01.902Z,10.00
2018-08-09T14:05:32.193Z,11.07
2018-08-09T14:08:02.010Z,6.90
2018-08-09T14:10:32.622Z,6.80
2018-08-09T14:13:02.878Z,8.65
2018-08-09T14:15:32.359Z,9.10
2018-08-09T14:18:02.270Z,8.30
2018-08-09T14:20:32.281Z,6.80
2018-08-09T14:23:03.147Z,7.47
2018-08-09T14:25:32.721Z,6.20
2018-08-09T14:28:03.030Z,7.40
2018-08-09T14:30:32.867Z,7.80
2018-08-09T14:33:02.761Z,9.15
2018-08-09T14:35:32.454Z,8.33
2018-08-09T14:38:02.594Z,7.90
2018-08-09T14:40:32.496Z,6.53
2018-08-09T14:43:02.679Z,7.42
2018-08-09T14:45:32.589Z,9.23
2018-08-09T14:48:02.365Z,8.60
2018-08-09T14:50:32.394Z,7.17
2018-08-09T14:53:02.150Z,6.30
2018-08-09T14:55:31.585Z,5.60
2018-08-09T14:58:01.563Z,6.33
2018-08-09T15:00:31.194Z,8.50
2018-08-09T15:03:01.498Z,5.80
2018-08-09T15:05:31.292Z,7.03
2018-08-09T15:08:01.060Z,7.00
2018-08-09T15:10:30.711Z,5.63
2018-08-09T15:13:00.426Z,7.93
2018-08-09T15:15:30.420Z,7.07
2018-08-09T15:18:00.133Z,6.23
2018-08-09T15:20:29.594Z,10.13
2018-08-09T15:23:00.216Z,10.65
2018-08-09T15:25:30.222Z,6.60
2018-08-09T15:28:00.107Z,9.20
2018-08-09T15:30:29.663Z,6.67
2018-08-09T15:32:59.536Z,8.38
2018-08-09T15:35:29.500Z,7.50
2018-08-09T15:37:59.323Z,10.63
2018-08-09T15:40:29.477Z,10.57
2018-08-09T15:42:59.204Z,6.37
2018-08-09T15:45:28.850Z,4.90
2018-08-09T15:47:58.813Z,7.07
2018-08-09T15:50:29.089Z,6.90
2018-08-09T15:52:59.200Z,8.73
2018-08-09T15:55:28.847Z,7.77
2018-08-09T15:57:58.850Z,6.17
2018-08-09T16:00:28.323Z,6.47
2018-08-09T16:02:58.602Z,7.03
2018-08-09T16:05:28.514Z,4.23
2018-08-09T16:07:58.468Z,4.85
2018-08-09T16:10:29.837Z,4.80
2018-08-09T16:12:59.862Z,5.65
2018-08-09T16:15:29.701Z,5.07
2018-08-09T16:17:59.667Z,6.57
2018-08-09T16:20:29.466Z,5.20
2018-08-09T16:22:59.277Z,2.77
2018-08-09T16:25:29.243Z,5.50
2018-08-09T16:27:58.977Z,7.05
2018-08-09T16:30:29.222Z,4.73
2018-08-09T16:32:59.093Z,4.20
2018-08-09T16:35:28.653Z,3.67
2018-08-09T16:37:58.807Z,5.37
2018-08-09T16:40:28.632Z,5.27
2018-08-09T16:42:58.252Z,4.60
2018-08-09T16:45:27.804Z,3.13
2018-08-09T16:47:57.452Z,9.83
2018-08-09T16:50:27.349Z,4.60
2018-08-09T16:52:57.157Z,5.00
2018-08-09T16:55:27.331Z,5.17
2018-08-09T16:57:57.546Z,3.50
2018-08-09T17:00:27.664Z,6.43
2018-08-09T17:02:57.588Z,3.70
2018-08-09T17:05:28.225Z,4.03
2018-08-09T17:07:58.418Z,7.37
2018-08-09T17:10:27.914Z,4.07
2018-08-09T17:12:57.783Z,3.67
2018-08-09T17:15:28.938Z,4.67
2018-08-09T17:17:59.845Z,5.20
2018-08-09T17:20:31.683Z,2.83
2018-08-09T17:23:02.752Z,4.60
2018-08-09T17:25:32.719Z,3.33
2018-08-09T17:28:02.653Z,4.63
2018-08-09T17:30:32.520Z,7.13
2018-08-09T17:33:02.689Z,4.45
2018-08-09T17:35:32.932Z,5.50
2018-08-09T17:38:03.124Z,5.33
2018-08-09T17:40:34.605Z,3.07
2018-08-09T17:43:04.966Z,2.95
2018-08-09T17:45:36.270Z,2.93
2018-08-09T17:48:06.428Z,2.43
2018-08-09T17:50:35.958Z,4.63
2018-08-09T17:53:07.406Z,4.00
2018-08-09T17:55:37.242Z,4.47
2018-08-09T17:58:07.176Z,4.83
2018-08-09T18:00:37.174Z,5.37
2018-08-09T18:03:06.996Z,3.77
2018-08-09T18:05:36.935Z,5.07
2018-08-09T18:08:06.938Z,6.30
2018-08-09T18:10:37.102Z,3.70
2018-08-09T18:13:07.566Z,2.80
2018-08-09T18:15:37.830Z,9.55
2018-08-09T18:18:07.555Z,8.10
2018-08-09T18:20:40.066Z,4.40
2018-08-09T18:23:10.242Z,7.13
2018-08-09T18:25:39.850Z,3.33
2018-08-09T18:28:10.914Z,3.20
2018-08-09T18:30:40.676Z,4.60
2018-08-09T18:33:10.582Z,4.43
2018-08-09T18:35:40.216Z,3.30
2018-08-09T18:38:10.286Z,4.87
2018-08-09T18:40:39.892Z,2.40
2018-08-09T18:43:09.694Z,3.33
2018-08-09T18:45:39.848Z,3.27
2018-08-09T18:48:09.925Z,4.03
2018-08-09T18:50:40.138Z,3.03
2018-08-09T18:53:10.104Z,3.37
2018-08-09T18:55:39.948Z,2.92
2018-08-09T18:58:10.277Z,6.77
2018-08-09T19:00:40.585Z,3.53
2018-08-09T19:03:12.107Z,3.73
2018-08-09T19:05:41.749Z,1.97
2018-08-09T19:08:11.213Z,1.97
2018-08-09T19:10:40.913Z,4.70
2018-08-09T19:13:10.452Z,3.40
2018-08-09T19:15:40.012Z,3.47
2018-08-09T19:18:09.721Z,3.27
2018-08-09T19:20:39.525Z,2.37
2018-08-09T19:23:09.080Z,2.13
2018-08-09T19:25:39.296Z,3.63
2018-08-09T19:28:08.970Z,3.60
2018-08-09T19:30:38.831Z,5.10
2018-08-09T19:33:08.361Z,3.07
2018-08-09T19:35:38.166Z,3.13
2018-08-09T19:38:08.201Z,3.17
2018-08-09T19:40:40.150Z,2.07
2018-08-09T19:43:10.355Z,2.97
2018-08-09T19:45:41.526Z,1.80
2018-08-09T19:48:11.294Z,3.60
2018-08-09T19:50:41.398Z,2.37
2018-08-09T19:53:11.335Z,1.40
2018-08-09T19:55:41.419Z,2.60
2018-08-09T19:58:18.302Z,1.43
2018-08-09T20:00:51.277Z,3.00
2018-08-09T20:03:25.323Z,3.23
2018-08-09T20:05:58.383Z,2.12
2018-08-09T20:08:32.068Z,2.03
2018-08-09T20:11:05.527Z,1.52
2018-08-09T20:13:38.968Z,1.60
2018-08-09T20:16:12.629Z,1.17
2018-08-09T20:18:45.522Z,2.47
2018-08-09T20:21:19.235Z,1.63
2018-08-09T20:23:49.566Z,2.20
2018-08-09T20:26:22.695Z,4.90
2018-08-09T20:28:55.879Z,2.98
2018-08-09T20:31:28.844Z,1.67
2018-08-09T20:34:02.329Z,1.87
2018-08-09T20:36:35.360Z,2.57
2018-08-09T20:39:13.154Z,1.37
2018-08-09T20:41:46.522Z,5.67
2018-08-09T20:44:19.759Z,1.63
2018-08-09T20:46:53.329Z,3.57
2018-08-09T20:49:26.654Z,3.73
2018-08-09T20:51:56.355Z,1.72
2018-08-09T20:54:27.854Z,2.80
2018-08-09T20:56:59.555Z,2.27
2018-08-09T20:59:31.803Z,2.40
2018-08-09T21:02:04.161Z,4.78
2018-08-09T21:04:34.814Z,3.53
2018-08-09T21:07:06.414Z,1.80
2018-08-09T21:09:37.782Z,2.10
2018-08-09T21:12:07.899Z,4.10
2018-08-09T21:14:40.269Z,1.80
2018-08-09T21:17:12.582Z,3.47
2018-08-09T21:19:44.323Z,3.83
2018-08-09T21:22:16.148Z,3.10
2018-08-09T21:24:48.588Z,2.00
2018-08-09T21:27:20.692Z,2.40
2018-08-09T21:29:53.261Z,1.52
2018-08-09T21:32:27.178Z,3.63
2018-08-09T21:35:00.789Z,1.95
2018-08-09T21:37:33.100Z,1.27
2018-08-09T21:40:07.278Z,1.20
2018-08-09T21:42:40.643Z,5.10
2018-08-09T21:45:17.968Z,2.30
2018-08-09T21:47:51.191Z,3.60
2018-08-09T21:50:23.217Z,1.00
2018-08-09T21:52:56.845Z,3.27
2018-08-09T21:55:30.150Z,1.97
2018-08-09T21:58:00.061Z,1.20
2018-08-09T22:00:55.702Z,3.70
2018-08-09T22:03:32.265Z,3.90
2018-08-09T22:06:07.740Z,1.22
2018-08-09T22:08:42.887Z,1.43
2018-08-09T22:12:16.705Z,1.47
2018-08-09T22:14:51.826Z,1.03
2018-08-09T22:17:26.700Z,2.10
2018-08-09T22:20:02.528Z,0.75
2018-08-09T22:22:32.440Z,0.60
2018-08-09T22:25:02.227Z,3.50
2018-08-09T22:27:31.766Z,1.33
2018-08-09T22:30:01.588Z,3.77
2018-08-09T22:32:31.466Z,0.70
2018-08-09T22:35:01.386Z,0.70
2018-08-09T22:37:30.868Z,1.30
2018-08-09T22:40:00.956Z,1.35
2018-08-09T22:42:30.629Z,0.37
2018-08-09T22:45:00.545Z,0.90
2018-08-09T22:47:30.102Z,3.60
2018-08-09T22:50:00.174Z,2.42
2018-08-09T22:52:29.919Z,0.57
2018-08-09T22:55:00.103Z,0.73
2018-08-09T22:57:29.625Z,1.60
2018-08-09T22:59:59.315Z,0.73
2018-08-09T23:02:28.913Z,0.43
2018-08-09T23:04:58.533Z,0.50
2018-08-09T23:07:28.753Z,4.57
2018-08-09T23:09:58.559Z,2.50
2018-08-09T23:12:28.594Z,1.43
2018-08-09T23:14:59.166Z,0.40
2018-08-09T23:17:28.974Z,0.43
2018-08-09T23:19:58.971Z,1.55
2018-08-09T23:22:28.741Z,1.67
2018-08-09T23:24:58.790Z,0.80
2018-08-09T23:27:28.505Z,0.30
2018-08-09T23:29:58.288Z,0.30
2018-08-09T23:32:28.110Z,0.20
2018-08-09T23:34:57.894Z,1.33
2018-08-09T23:37:27.660Z,1.33
2018-08-09T23:39:58.231Z,4.43
2018-08-09T23:42:28.006Z,2.33
2018-08-09T23:44:58.108Z,0.27
2018-08-09T23:47:28.017Z,0.47
2018-08-09T23:49:57.727Z,1.32
2018-08-09T23:52:27.553Z,1.43
2018-08-09T23:54:57.283Z,0.70
2018-08-09T23:57:27.100Z,1.27
2018-08-09T23:59:56.715Z,0.30
